Aérodrome :
LOGIN :

S'inscrire | Disclaimer

   EN    FR    IT 

 










Légende :    VFR   VFR Marginal   IFR   IFR Intensif   IFR Très Intensif
Visi : 
Plafond : 
>= 8 km
>= 3000ft
5 à 8 km
1000 à 3000 ft
1500m à 5 km
500 à 1000 ft
800 à 1500m
200 à 500 ft
< 800m
< 200 ft
Symboles :   Orages  Brouillard  Fortes neiges  Fortes précipitations  Vent > 20 kt
SIGMETs :   Divers  Orages  Givrage  Turbulence  Onde Orograph.  Cendres Volcan.







- Altitude de l'aérodrome : 357 ft
- Code IATA : TUF
- Voir les cartes d'approche


LFOT - Tours

DERNIER METAR :
  • 181530Z AUTO 13011KT 110V170 CAVOK 30/14 Q1009 NOSIG

METARs EXPIRÉS :
  • 181500Z AUTO 13010KT CAVOK 30/14 Q1009 NOSIG
  • 181430Z AUTO 12010KT CAVOK 30/16 Q1009 NOSIG
  • 181400Z AUTO 12011KT CAVOK 30/16 Q1009 NOSIG
  • 181330Z AUTO 12012KT 090V150 CAVOK 28/16 Q1009 NOSIG
  • 181300Z AUTO 10008KT 070V140 CAVOK 28/20 Q1010 NOSIG

TAF TAF LFOT
Valide du 18 à 12h jusqu'au 19 à 12h UTC


181100Z 1812/1912 10008KT CAVOK
TEMPO 1900/1903 -SHRA BKN050TCU
PROB30
TEMPO 1900/1902 VRB15G35KT 3000 TSRA BKN060CB
BECMG 1902/1904 23010KT
PROB30
TEMPO 1910/1912 24015G25KT -SHRA SCT050TCU
Pas de NOTAMs connus pour ce terrain.



MET'MAP, la Météo Aéronautique d'un coup d'oeil ! - Copyright ORBIFLY Décembre 2007 - Disclaimer

ORBIFLY MET'MAP TEAM :

Programmation & Développement : Alexandra Zaïnal
Conception & Développement : Baudouin d'Aumeries
Co-Programmation & Développement : Marc-Olivier Méhu
Soutien technique & logistique : Manuel Goepfert

Contact : metmap@orbifly.com




SOURCES & CREDITS :

   NOAA